Time;durP1;ratioP1;P1;durP2;ratioP2;P2;SDS_P1;SDS_P2;PMS_P1;PMS_P2;Temp;Humidity;BMP_temperature;BMP_pressure;BME280_temperature;BME280_humidity;BME280_pressure;Samples;Min_cycle;Max_cycle;Signal;HPM_P1;HPM_P2
2022/08/20 00:00:13;;;;;;;5.53;3.80;;;19.10;99.90;;;;;;5119540;28;20046;-75
2022/08/20 00:02:53;;;;;;;6.00;3.85;;;19.00;99.90;;;;;;5118948;27;20592;-76
2022/08/20 00:05:30;;;;;;;8.68;4.47;;;19.00;99.90;;;;;;5118754;28;20016;-76
2022/08/20 00:07:57;;;;;;;8.30;4.30;;;19.00;99.90;;;;;;5118088;28;20016;-76
2022/08/20 00:10:24;;;;;;;10.13;4.68;;;19.10;99.90;;;;;;5119183;28;20059;-75
2022/08/20 00:12:51;;;;;;;5.95;4.25;;;19.10;99.90;;;;;;5118730;28;20028;-75
2022/08/20 00:15:20;;;;;;;5.18;4.38;;;19.10;99.90;;;;;;5119121;28;20028;-75
2022/08/20 00:17:50;;;;;;;6.70;4.38;;;19.00;99.90;;;;;;5117689;28;20028;-75
2022/08/20 00:20:19;;;;;;;7.45;4.50;;;19.00;99.90;;;;;;5108893;28;20027;-75
2022/08/20 00:22:46;;;;;;;11.25;4.53;;;19.00;99.90;;;;;;5117549;28;20027;-76
2022/08/20 00:25:13;;;;;;;10.02;4.43;;;19.00;99.90;;;;;;5108118;28;20083;-76
2022/08/20 00:27:39;;;;;;;8.07;4.25;;;18.90;99.90;;;;;;5117708;28;20027;-75
2022/08/20 00:30:07;;;;;;;7.93;4.30;;;19.00;99.90;;;;;;5116737;28;20488;-76
2022/08/20 00:32:45;;;;;;;7.43;4.75;;;19.00;99.90;;;;;;5117481;28;20027;-76
2022/08/20 00:35:11;;;;;;;7.22;4.07;;;19.00;99.90;;;;;;5118401;28;20061;-76
2022/08/20 00:37:37;;;;;;;8.05;4.18;;;19.00;99.90;;;;;;5118943;28;20437;-76
2022/08/20 00:40:06;;;;;;;6.53;4.93;;;19.00;99.90;;;;;;5117427;28;20024;-76
2022/08/20 00:42:41;;;;;;;6.68;4.20;;;19.00;99.90;;;;;;5113503;28;20024;-76
2022/08/20 00:45:07;;;;;;;7.35;4.55;;;19.00;99.90;;;;;;5117405;28;20016;-76
2022/08/20 00:47:33;;;;;;;8.55;4.57;;;19.00;99.90;;;;;;5111485;28;20077;-76
2022/08/20 00:49:59;;;;;;;5.45;4.28;;;18.90;99.90;;;;;;5116871;28;20019;-76
2022/08/20 00:52:26;;;;;;;9.23;4.65;;;18.90;99.90;;;;;;5116749;28;20027;-76
2022/08/20 00:54:59;;;;;;;5.53;4.32;;;18.90;99.90;;;;;;5117086;28;20059;-76
2022/08/20 00:57:36;;;;;;;7.13;4.45;;;18.80;99.90;;;;;;5112925;28;20023;-76
2022/08/20 01:00:09;;;;;;;10.40;4.65;;;18.80;99.90;;;;;;5118392;28;20028;-75
2022/08/20 01:02:35;;;;;;;6.18;4.70;;;18.80;99.90;;;;;;5116471;28;20088;-76
2022/08/20 01:05:04;;;;;;;5.88;4.53;;;18.80;99.90;;;;;;5118360;28;20019;-76
2022/08/20 01:07:36;;;;;;;6.68;4.82;;;18.80;99.90;;;;;;5116336;28;20023;-76
2022/08/20 01:10:17;;;;;;;7.72;5.05;;;18.80;99.90;;;;;;5117055;28;20365;-75
2022/08/20 01:12:45;;;;;;;5.78;4.43;;;18.70;99.90;;;;;;5117107;28;20027;-75
2022/08/20 01:15:16;;;;;;;5.57;4.32;;;18.70;99.90;;;;;;5110018;28;20129;-75
2022/08/20 01:17:48;;;;;;;9.93;4.93;;;18.70;99.90;;;;;;5116310;28;20034;-75
2022/08/20 01:20:30;;;;;;;8.27;4.68;;;18.70;99.90;;;;;;5111849;28;20038;-75
2022/08/20 01:23:26;;;;;;;7.38;4.82;;;18.70;99.90;;;;;;5117674;28;20119;-75
2022/08/20 01:25:54;;;;;;;8.63;5.28;;;18.60;99.90;;;;;;5116322;28;20445;-75
2022/08/20 01:28:28;;;;;;;8.35;5.28;;;18.50;99.90;;;;;;5113343;28;20117;-76
2022/08/20 01:30:54;;;;;;;6.25;4.60;;;18.50;99.90;;;;;;5105053;28;20020;-76
2022/08/20 01:33:22;;;;;;;9.85;4.80;;;18.40;99.90;;;;;;5108480;28;20034;-76
2022/08/20 01:35:49;;;;;;;7.07;4.65;;;18.40;99.90;;;;;;5115998;28;20092;-75
2022/08/20 01:38:16;;;;;;;7.80;4.60;;;18.40;99.90;;;;;;5105964;28;20483;-76
2022/08/20 01:41:15;;;;;;;9.20;5.60;;;18.30;99.90;;;;;;5117722;28;20026;-76
2022/08/20 01:43:44;;;;;;;8.75;5.28;;;18.20;99.90;;;;;;5116331;28;20051;-76
2022/08/20 01:46:10;;;;;;;5.72;4.68;;;18.20;99.90;;;;;;5109213;28;20052;-76
2022/08/20 01:48:39;;;;;;;7.25;5.18;;;18.10;99.90;;;;;;5117104;28;20028;-75
2022/08/20 01:51:19;;;;;;;6.15;5.07;;;18.10;99.90;;;;;;5108922;28;20034;-75
2022/08/20 01:53:53;;;;;;;6.85;4.95;;;18.00;99.90;;;;;;5116121;28;20093;-76
2022/08/20 01:56:24;;;;;;;5.68;4.65;;;18.00;99.90;;;;;;5117484;28;20024;-75
2022/08/20 01:58:53;;;;;;;6.82;5.18;;;18.00;99.90;;;;;;5117374;28;20471;-75
2022/08/20 02:01:23;;;;;;;6.95;5.32;;;17.90;99.90;;;;;;5116145;28;20547;-75
2022/08/20 02:03:50;;;;;;;10.23;6.63;;;17.90;99.90;;;;;;5115625;28;20028;-75
2022/08/20 02:06:16;;;;;;;8.85;4.88;;;17.80;99.90;;;;;;5119797;28;20020;-75
2022/08/20 02:08:42;;;;;;;5.60;5.00;;;17.80;99.90;;;;;;5120188;28;20053;-75
2022/08/20 02:11:09;;;;;;;7.03;4.72;;;17.80;99.90;;;;;;5121604;28;20617;-75
2022/08/20 02:13:35;;;;;;;7.47;5.75;;;17.70;99.90;;;;;;5121462;28;20032;-75
2022/08/20 02:16:01;;;;;;;8.05;5.80;;;17.70;99.90;;;;;;5120370;28;20023;-75
2022/08/20 02:18:27;;;;;;;6.65;5.03;;;17.70;99.90;;;;;;5121230;28;20036;-76
2022/08/20 02:20:53;;;;;;;9.25;5.43;;;17.70;99.90;;;;;;5119917;28;20085;-75
2022/08/20 02:23:19;;;;;;;5.97;4.95;;;17.60;99.90;;;;;;5121197;28;20019;-75
2022/08/20 02:25:48;;;;;;;9.73;4.82;;;17.60;99.90;;;;;;5120887;28;20059;-75
2022/08/20 02:28:17;;;;;;;7.60;5.22;;;17.60;99.90;;;;;;5110493;28;20053;-76
2022/08/20 02:30:47;;;;;;;11.65;5.20;;;17.60;99.90;;;;;;5121381;27;20379;-75
2022/08/20 02:33:15;;;;;;;8.85;5.18;;;17.60;99.90;;;;;;5120971;28;20019;-75
2022/08/20 02:35:44;;;;;;;7.40;5.80;;;17.50;99.90;;;;;;5120899;28;20032;-75
2022/08/20 02:38:10;;;;;;;7.07;4.78;;;17.50;99.90;;;;;;5119764;28;20019;-75
2022/08/20 02:40:36;;;;;;;6.45;4.70;;;17.50;99.90;;;;;;5117453;28;20034;-76
2022/08/20 02:43:03;;;;;;;9.27;5.78;;;17.50;99.90;;;;;;5120784;28;20120;-76
2022/08/20 02:45:36;;;;;;;8.88;5.00;;;17.40;99.90;;;;;;5115526;28;20016;-76
2022/08/20 02:48:02;;;;;;;6.85;5.30;;;17.40;99.90;;;;;;5119485;28;20024;-76
2022/08/20 02:50:29;;;;;;;8.07;5.82;;;17.40;99.90;;;;;;5112570;28;20399;-76
2022/08/20 02:52:55;;;;;;;5.95;4.85;;;17.30;99.90;;;;;;5119832;28;20027;-76
2022/08/20 02:55:22;;;;;;;6.20;4.60;;;17.30;99.90;;;;;;5119221;28;20044;-76
2022/08/20 02:57:48;;;;;;;7.70;5.30;;;17.30;99.90;;;;;;5115111;28;20454;-76
2022/08/20 03:00:17;;;;;;;6.50;4.90;;;17.30;99.90;;;;;;5119304;28;20092;-76
2022/08/20 03:02:44;;;;;;;7.18;5.05;;;17.30;99.90;;;;;;5119444;28;20091;-76
2022/08/20 03:05:11;;;;;;;12.73;5.20;;;17.30;99.90;;;;;;5120210;28;20088;-76
2022/08/20 03:07:50;;;;;;;7.50;5.32;;;17.30;99.90;;;;;;5120991;28;20023;-76
2022/08/20 03:10:16;;;;;;;9.40;5.55;;;17.30;99.90;;;;;;5118601;28;20019;-76
2022/08/20 03:12:42;;;;;;;7.35;5.50;;;17.20;99.90;;;;;;5120867;28;20023;-76
2022/08/20 03:15:10;;;;;;;8.65;5.32;;;17.20;99.90;;;;;;5120307;28;20034;-76
2022/08/20 03:17:36;;;;;;;7.15;5.13;;;17.20;99.90;;;;;;5109773;28;20076;-75
2022/08/20 03:20:06;;;;;;;6.05;5.45;;;17.10;99.90;;;;;;5115640;28;20456;-75
2022/08/20 03:22:31;;;;;;;6.85;5.45;;;17.10;99.90;;;;;;5118987;28;20096;-76
2022/08/20 03:24:57;;;;;;;10.70;5.93;;;17.10;99.90;;;;;;5113985;28;20107;-76
2022/08/20 03:27:23;;;;;;;5.85;5.05;;;17.10;99.90;;;;;;5119913;28;20043;-76
2022/08/20 03:29:49;;;;;;;7.35;5.90;;;17.10;99.90;;;;;;5111564;28;20074;-76
2022/08/20 03:32:15;;;;;;;8.75;6.60;;;17.10;99.90;;;;;;5120018;28;20023;-75
2022/08/20 03:34:41;;;;;;;7.55;5.60;;;17.00;99.90;;;;;;5109496;28;20078;-76
2022/08/20 03:37:07;;;;;;;8.15;5.90;;;17.00;99.90;;;;;;5110013;28;20016;-76
2022/08/20 03:39:33;;;;;;;7.03;5.93;;;17.00;99.90;;;;;;5115774;28;20019;-76
2022/08/20 03:41:59;;;;;;;6.57;5.53;;;17.00;99.90;;;;;;5120131;28;20064;-75
2022/08/20 03:44:25;;;;;;;7.82;6.05;;;17.00;99.90;;;;;;5118661;28;20019;-76
2022/08/20 03:46:51;;;;;;;8.82;5.70;;;17.00;99.90;;;;;;5119559;28;20021;-76
2022/08/20 03:49:17;;;;;;;8.57;5.93;;;16.90;99.90;;;;;;5112941;28;20080;-75
2022/08/20 03:51:43;;;;;;;7.32;5.05;;;16.90;99.90;;;;;;5118222;28;20020;-75
2022/08/20 03:54:08;;;;;;;8.05;6.07;;;16.90;99.90;;;;;;5119340;28;20031;-75
2022/08/20 03:56:34;;;;;;;11.57;5.72;;;16.90;99.90;;;;;;5118344;28;20019;-75
2022/08/20 03:59:00;;;;;;;6.57;5.10;;;16.90;99.90;;;;;;5118062;28;20069;-75
2022/08/20 04:01:27;;;;;;;7.80;5.80;;;16.80;99.90;;;;;;5119433;28;20031;-75
2022/08/20 04:03:52;;;;;;;7.93;5.95;;;16.80;99.90;;;;;;5118912;28;20012;-75
2022/08/20 04:06:18;;;;;;;7.28;5.82;;;16.80;99.90;;;;;;5119864;28;20061;-75
2022/08/20 04:08:44;;;;;;;6.90;5.78;;;16.70;99.90;;;;;;5118054;28;20032;-76
2022/08/20 04:11:10;;;;;;;7.25;5.68;;;16.70;99.90;;;;;;5118079;28;20518;-75
2022/08/20 04:13:36;;;;;;;8.80;5.78;;;16.70;99.90;;;;;;5119047;28;20107;-75
2022/08/20 04:16:07;;;;;;;7.18;5.70;;;16.70;99.90;;;;;;5118132;28;20016;-75
2022/08/20 04:18:35;;;;;;;9.02;6.70;;;16.70;99.90;;;;;;5119122;28;20403;-75
2022/08/20 04:21:03;;;;;;;9.32;6.20;;;16.70;99.90;;;;;;5107115;28;20568;-75
2022/08/20 04:23:30;;;;;;;8.40;6.30;;;16.70;99.90;;;;;;5118799;28;20024;-75
2022/08/20 04:25:56;;;;;;;12.25;5.88;;;16.60;99.90;;;;;;5112387;28;20085;-75
2022/08/20 04:28:25;;;;;;;8.15;5.18;;;16.60;99.90;;;;;;5117850;28;20038;-75
2022/08/20 04:30:52;;;;;;;7.03;5.95;;;16.60;99.90;;;;;;5118873;28;20008;-75
2022/08/20 04:33:23;;;;;;;11.20;5.80;;;16.60;99.90;;;;;;5118517;28;20034;-75
2022/08/20 04:35:50;;;;;;;7.95;5.63;;;16.60;99.90;;;;;;5118788;28;20022;-75
2022/08/20 04:38:18;;;;;;;9.18;5.85;;;16.60;99.90;;;;;;5116901;28;20035;-75
2022/08/20 04:40:54;;;;;;;11.57;6.53;;;16.50;99.90;;;;;;5118836;28;20020;-75
2022/08/20 04:43:22;;;;;;;10.32;5.82;;;16.50;99.90;;;;;;5118400;28;20419;-75
2022/08/20 04:45:48;;;;;;;7.32;6.57;;;16.50;99.90;;;;;;5114304;28;20031;-75
2022/08/20 04:48:14;;;;;;;6.03;5.20;;;16.40;99.90;;;;;;5118259;28;20140;-75
2022/08/20 04:50:43;;;;;;;6.70;5.47;;;16.40;99.90;;;;;;5118447;28;20023;-75
2022/08/20 04:53:11;;;;;;;9.75;6.50;;;16.40;99.90;;;;;;5116694;28;20150;-75
2022/08/20 04:55:41;;;;;;;9.18;6.45;;;16.40;99.90;;;;;;5118442;28;20026;-75
2022/08/20 04:58:19;;;;;;;8.02;6.28;;;16.40;99.90;;;;;;5118663;28;20024;-75
2022/08/20 05:00:47;;;;;;;8.13;5.28;;;16.40;99.90;;;;;;5113380;28;20024;-75
2022/08/20 05:03:14;;;;;;;10.27;5.82;;;16.40;99.90;;;;;;5118440;27;20027;-75
2022/08/20 05:05:40;;;;;;;14.32;6.45;;;16.40;99.90;;;;;;5116868;28;20051;-75
2022/08/20 05:08:06;;;;;;;12.70;5.85;;;16.40;99.90;;;;;;5118494;28;20076;-75
2022/08/20 05:10:33;;;;;;;6.90;5.03;;;16.40;99.90;;;;;;5116953;28;20016;-76
2022/08/20 05:12:59;;;;;;;6.93;5.68;;;16.40;99.90;;;;;;5117151;28;20080;-76
2022/08/20 05:15:25;;;;;;;9.95;5.68;;;16.40;99.90;;;;;;5118201;28;20099;-75
2022/08/20 05:18:02;;;;;;;6.60;5.30;;;16.40;99.90;;;;;;5116866;28;20027;-75
2022/08/20 05:20:30;;;;;;;5.85;5.22;;;16.40;99.90;;;;;;5115903;28;20581;-75
2022/08/20 05:23:00;;;;;;;8.88;6.25;;;16.50;99.90;;;;;;5118076;28;20031;-75
2022/08/20 05:25:28;;;;;;;9.15;5.90;;;16.50;99.90;;;;;;5106193;28;20487;-76
2022/08/20 05:28:08;;;;;;;8.35;5.90;;;16.50;99.90;;;;;;5110291;28;20099;-75
2022/08/20 05:30:36;;;;;;;12.90;6.35;;;16.60;99.90;;;;;;5117925;28;20031;-75
2022/08/20 05:33:04;;;;;;;8.35;6.72;;;16.60;99.90;;;;;;5117871;28;20016;-76
2022/08/20 05:35:33;;;;;;;7.90;6.47;;;16.70;99.90;;;;;;5117560;28;20045;-75
2022/08/20 05:38:02;;;;;;;7.97;6.45;;;16.80;99.90;;;;;;5116199;28;20368;-75
2022/08/20 05:40:28;;;;;;;9.45;6.75;;;16.90;99.90;;;;;;5115108;28;20080;-75
2022/08/20 05:42:54;;;;;;;10.10;6.85;;;17.00;99.90;;;;;;5116077;28;20085;-75
2022/08/20 05:45:21;;;;;;;8.70;6.70;;;17.10;99.90;;;;;;5115200;28;20431;-75
2022/08/20 05:47:47;;;;;;;8.95;6.22;;;17.20;99.90;;;;;;5117691;28;20106;-74
2022/08/20 05:50:15;;;;;;;10.15;6.95;;;17.40;99.90;;;;;;5115188;28;20020;-75
2022/08/20 05:52:41;;;;;;;14.02;6.25;;;17.50;99.90;;;;;;5115285;28;20028;-74
2022/08/20 05:55:12;;;;;;;8.45;5.78;;;17.50;99.90;;;;;;5117046;28;20032;-75
2022/08/20 05:57:38;;;;;;;9.82;6.15;;;17.60;99.90;;;;;;5116151;28;20027;-75
2022/08/20 06:00:07;;;;;;;9.20;5.57;;;17.70;99.90;;;;;;5117445;28;20038;-75
2022/08/20 06:05:18;;;;;;;12.77;6.13;;;17.90;99.90;;;;;;5100837;28;20078;-75
2022/08/20 06:07:49;;;;;;;7.60;5.85;;;18.00;99.90;;;;;;5098364;28;20028;-76
2022/08/20 06:10:23;;;;;;;7.05;5.70;;;18.10;99.90;;;;;;5099479;28;20541;-76
2022/08/20 06:12:52;;;;;;;20.52;6.07;;;18.10;99.90;;;;;;5114769;28;20030;-76
2022/08/20 06:15:19;;;;;;;7.15;5.07;;;18.30;99.90;;;;;;5099504;28;20087;-76
2022/08/20 06:17:45;;;;;;;9.20;5.70;;;18.40;99.90;;;;;;5114485;28;20027;-76
2022/08/20 06:20:11;;;;;;;8.15;5.13;;;18.50;99.90;;;;;;5111417;28;20028;-76
2022/08/20 06:22:40;;;;;;;7.57;4.38;;;18.60;99.90;;;;;;5114935;28;20164;-77
2022/08/20 06:25:06;;;;;;;8.32;4.32;;;18.80;99.90;;;;;;5109772;28;20503;-76
2022/08/20 06:27:46;;;;;;;;;;;;;;;;;;;;;
2022/08/20 06:30:17;;;;;;;4.50;3.83;;;19.10;99.90;;;;;;5116139;28;20201;-77
2022/08/20 06:32:51;;;;;;;7.07;4.10;;;19.20;99.90;;;;;;5115313;28;20411;-78
2022/08/20 06:35:17;;;;;;;5.65;4.07;;;19.30;99.90;;;;;;5115287;28;20030;-77
2022/08/20 06:37:43;;;;;;;5.28;4.50;;;19.40;99.90;;;;;;5108552;28;20024;-77
2022/08/20 06:40:16;;;;;;;4.72;4.00;;;19.40;99.90;;;;;;5104031;28;20106;-77
2022/08/20 06:42:42;;;;;;;7.15;3.90;;;19.50;99.90;;;;;;5109721;28;20024;-77
2022/08/20 06:45:15;;;;;;;7.03;4.18;;;19.60;99.90;;;;;;5116310;28;20016;-78
2022/08/20 06:47:43;;;;;;;5.95;3.88;;;19.60;99.90;;;;;;5101272;28;20028;-78
2022/08/20 06:50:19;;;;;;;6.45;4.10;;;19.70;99.90;;;;;;5116785;28;20504;-76
2022/08/20 06:52:46;;;;;;;6.57;3.63;;;19.80;99.90;;;;;;5120552;28;20085;-77
2022/08/20 06:55:13;;;;;;;7.53;4.10;;;19.90;99.90;;;;;;5119817;28;20027;-77
2022/08/20 06:57:39;;;;;;;5.05;4.13;;;20.00;99.90;;;;;;5101004;28;20020;-79
2022/08/20 07:00:13;;;;;;;4.00;3.15;;;20.10;99.90;;;;;;5100780;28;20044;-79
2022/08/20 07:02:39;;;;;;;6.25;3.53;;;20.10;99.90;;;;;;5111645;28;20028;-78
2022/08/20 07:05:06;;;;;;;4.18;3.47;;;20.10;99.90;;;;;;5112680;28;20015;-78
2022/08/20 07:07:33;;;;;;;6.60;3.55;;;20.20;99.90;;;;;;5119476;28;20023;-78
2022/08/20 07:10:10;;;;;;;6.05;3.80;;;20.30;99.90;;;;;;5113665;28;20058;-77
2022/08/20 07:12:37;;;;;;;7.20;3.35;;;20.40;99.90;;;;;;5116940;28;20027;-77
2022/08/20 07:15:04;;;;;;;4.75;3.10;;;20.50;99.90;;;;;;5119115;28;20043;-79
2022/08/20 07:17:30;;;;;;;8.02;4.00;;;20.50;99.90;;;;;;5110913;28;20057;-78
2022/08/20 07:19:56;;;;;;;5.38;3.40;;;20.60;99.90;;;;;;5105163;28;20750;-79
2022/08/20 07:22:23;;;;;;;8.13;3.47;;;20.60;99.90;;;;;;5119695;28;20110;-78
2022/08/20 07:24:50;;;;;;;3.78;2.95;;;20.70;99.90;;;;;;5115743;28;20023;-77
2022/08/20 07:27:21;;;;;;;2.50;2.25;;;20.80;99.90;;;;;;5107777;28;20050;-80
2022/08/20 07:32:35;;;;;;;7.88;2.83;;;20.90;99.90;;;;;;5119281;28;20031;-76
2022/08/20 07:35:07;;;;;;;3.53;2.88;;;21.10;99.90;;;;;;5119859;28;20020;-77
2022/08/20 07:37:38;;;;;;;6.10;2.50;;;21.20;99.90;;;;;;5119392;28;20085;-78
2022/08/20 07:40:06;;;;;;;6.18;2.97;;;21.20;99.90;;;;;;5117685;28;20107;-75
2022/08/20 07:42:31;;;;;;;5.80;2.28;;;21.40;99.90;;;;;;5119569;28;20020;-77
2022/08/20 07:44:57;;;;;;;3.75;2.00;;;21.50;99.90;;;;;;5110565;28;20058;-76
2022/08/20 07:47:24;;;;;;;4.18;2.42;;;21.60;99.90;;;;;;5119974;28;20020;-76
2022/08/20 07:49:49;;;;;;;3.63;1.77;;;21.70;99.90;;;;;;5110570;28;20426;-78
2022/08/20 07:52:15;;;;;;;2.17;1.88;;;21.80;99.90;;;;;;5108126;28;20024;-77
2022/08/20 07:54:42;;;;;;;6.55;2.47;;;21.80;99.90;;;;;;5112704;28;20948;-77
2022/08/20 07:57:10;;;;;;;2.92;2.00;;;21.90;99.90;;;;;;5119662;28;20016;-76
2022/08/20 07:59:37;;;;;;;4.88;2.35;;;21.90;99.90;;;;;;5118187;28;20061;-78
2022/08/20 08:02:04;;;;;;;5.22;2.10;;;21.90;99.90;;;;;;5118673;28;20015;-77
2022/08/20 08:04:29;;;;;;;5.88;2.78;;;22.00;99.90;;;;;;5117782;28;20027;-78
2022/08/20 08:06:58;;;;;;;3.53;2.08;;;22.10;99.90;;;;;;5111306;28;20020;-78
2022/08/20 08:09:26;;;;;;;2.60;2.05;;;22.30;99.90;;;;;;5118032;28;20024;-80
2022/08/20 08:11:56;;;;;;;3.78;1.90;;;22.40;99.90;;;;;;5119199;28;20031;-77
2022/08/20 08:14:26;;;;;;;1.93;1.53;;;22.50;99.90;;;;;;5118779;28;20019;-77
2022/08/20 08:16:58;;;;;;;4.70;1.63;;;22.60;99.90;;;;;;5117201;28;20257;-78
2022/08/20 08:19:26;;;;;;;4.78;2.58;;;22.60;99.90;;;;;;5108973;28;20253;-79
2022/08/20 08:21:52;;;;;;;3.13;2.10;;;22.70;99.90;;;;;;5118480;28;20068;-78
2022/08/20 08:24:18;;;;;;;2.20;1.80;;;22.70;99.90;;;;;;5111091;28;20102;-74
2022/08/20 08:26:44;;;;;;;9.52;2.55;;;22.60;99.90;;;;;;5114678;28;20048;-76
2022/08/20 08:29:11;;;;;;;2.75;1.45;;;22.70;99.90;;;;;;5117865;28;20382;-76
2022/08/20 08:31:37;;;;;;;2.00;1.58;;;22.90;99.90;;;;;;5100438;28;20016;-77
2022/08/20 08:34:03;;;;;;;3.75;1.70;;;23.10;99.90;;;;;;5104885;28;20073;-76
2022/08/20 08:36:30;;;;;;;2.47;1.45;;;23.10;99.90;;;;;;5118194;28;20055;-76
2022/08/20 08:38:56;;;;;;;3.90;1.65;;;23.30;99.90;;;;;;5118928;27;20020;-75
2022/08/20 08:41:39;;;;;;;3.33;1.60;;;23.40;99.90;;;;;;5109146;28;20072;-76
2022/08/20 08:44:08;;;;;;;4.28;1.90;;;23.50;99.90;;;;;;5116173;28;20031;-75
2022/08/20 08:46:47;;;;;;;5.35;2.70;;;23.50;99.90;;;;;;5118677;28;20020;-74
2022/08/20 08:49:18;;;;;;;2.20;1.52;;;23.70;99.90;;;;;;5117978;28;20456;-75
2022/08/20 08:52:06;;;;;;;2.33;1.55;;;23.70;99.90;;;;;;5118810;28;20567;-75
2022/08/20 08:54:34;;;;;;;2.25;1.45;;;23.80;99.90;;;;;;5117940;28;20018;-73
2022/08/20 08:57:01;;;;;;;3.92;2.05;;;23.90;99.90;;;;;;5118628;28;20028;-76
2022/08/20 08:59:29;;;;;;;3.75;1.30;;;24.00;99.90;;;;;;5111496;28;20020;-76
2022/08/20 09:01:58;;;;;;;4.25;1.52;;;24.30;99.90;;;;;;5116896;28;20056;-76
2022/08/20 09:04:30;;;;;;;5.32;1.70;;;24.50;99.90;;;;;;5105575;28;20099;-76
2022/08/20 09:06:57;;;;;;;4.43;1.02;;;24.50;99.90;;;;;;5114580;28;20081;-79
2022/08/20 09:09:31;;;;;;;2.03;1.33;;;24.50;99.90;;;;;;5117011;28;20020;-77
2022/08/20 09:12:08;;;;;;;2.45;1.50;;;24.40;99.90;;;;;;5114156;28;20050;-78
2022/08/20 09:14:34;;;;;;;2.42;1.40;;;24.40;99.90;;;;;;5113991;28;20387;-76
2022/08/20 09:17:00;;;;;;;2.35;1.35;;;24.40;99.90;;;;;;5111270;28;20124;-78
2022/08/20 09:19:26;;;;;;;3.05;1.48;;;24.40;99.90;;;;;;5116743;28;20094;-76
2022/08/20 09:21:52;;;;;;;3.38;1.33;;;24.30;99.90;;;;;;5111524;28;20043;-75
2022/08/20 09:24:18;;;;;;;2.20;1.17;;;24.20;99.90;;;;;;5111288;28;20487;-76
2022/08/20 09:26:44;;;;;;;2.42;0.93;;;24.10;99.90;;;;;;5112419;28;20044;-76
2022/08/20 09:29:10;;;;;;;1.40;1.10;;;24.20;99.90;;;;;;5109964;28;20020;-75
2022/08/20 09:31:36;;;;;;;5.43;1.65;;;24.60;99.90;;;;;;5116606;28;20020;-76
2022/08/20 09:34:02;;;;;;;2.20;1.30;;;24.90;99.90;;;;;;5116737;28;20023;-76
2022/08/20 09:36:28;;;;;;;2.47;1.10;;;25.10;99.90;;;;;;5116606;28;20019;-76
2022/08/20 09:38:54;;;;;;;2.92;1.45;;;25.30;99.90;;;;;;5114260;28;20065;-76
2022/08/20 09:41:20;;;;;;;2.47;1.30;;;25.50;99.90;;;;;;5100503;28;20024;-75
2022/08/20 09:43:46;;;;;;;8.38;1.35;;;25.80;99.90;;;;;;5116635;28;20030;-76
2022/08/20 09:46:12;;;;;;;2.95;1.10;;;25.90;99.90;;;;;;5116399;28;20111;-76
2022/08/20 09:48:37;;;;;;;3.58;1.10;;;25.80;99.90;;;;;;5111737;28;20032;-76
2022/08/20 09:51:04;;;;;;;2.63;1.27;;;25.90;99.90;;;;;;5114806;28;20071;-76
2022/08/20 09:53:30;;;;;;;1.60;1.15;;;25.90;99.90;;;;;;5116375;28;20041;-76
2022/08/20 09:55:57;;;;;;;1.80;1.10;;;26.10;99.90;;;;;;5099340;28;20022;-76
2022/08/20 09:58:42;;;;;;;2.42;1.13;;;26.20;99.90;;;;;;5111680;28;20467;-75
2022/08/20 10:01:13;;;;;;;2.00;1.15;;;26.20;99.90;;;;;;5115795;28;20016;-76
2022/08/20 10:03:43;;;;;;;2.20;1.10;;;26.00;99.90;;;;;;5115990;28;20063;-76
2022/08/20 10:06:10;;;;;;;1.75;1.00;;;25.70;99.90;;;;;;5113874;28;20051;-77
2022/08/20 10:08:36;;;;;;;1.73;1.00;;;25.50;99.90;;;;;;5116328;28;20031;-78
2022/08/20 10:11:03;;;;;;;1.50;0.98;;;25.50;99.90;;;;;;5112733;28;20062;-75
2022/08/20 10:13:29;;;;;;;2.28;1.00;;;25.30;99.90;;;;;;5115499;28;20024;-76
2022/08/20 10:15:55;;;;;;;4.53;1.25;;;25.20;99.90;;;;;;5116313;28;20015;-76
2022/08/20 10:18:21;;;;;;;2.85;1.30;;;25.10;99.90;;;;;;5115908;28;20512;-75
2022/08/20 10:20:47;;;;;;;2.33;1.15;;;25.10;99.90;;;;;;5090910;28;20024;-74
2022/08/20 10:23:13;;;;;;;5.22;1.67;;;25.10;99.90;;;;;;5097942;28;20089;-75
2022/08/20 10:25:40;;;;;;;4.28;1.48;;;25.40;99.90;;;;;;5109251;28;20040;-76
2022/08/20 10:28:06;;;;;;;9.00;1.48;;;25.80;99.90;;;;;;5106366;28;20076;-76
2022/08/20 10:30:32;;;;;;;1.73;1.05;;;26.10;99.90;;;;;;5114418;28;20016;-73
2022/08/20 10:32:58;;;;;;;4.25;1.20;;;26.10;99.90;;;;;;5105610;28;20102;-74
2022/08/20 10:35:24;;;;;;;2.35;1.48;;;26.20;99.90;;;;;;5119240;27;20055;-74
2022/08/20 10:37:50;;;;;;;1.52;1.10;;;26.20;99.90;;;;;;5119700;28;20095;-74
2022/08/20 10:40:16;;;;;;;3.47;1.00;;;26.10;99.90;;;;;;5118969;28;20080;-74
2022/08/20 10:42:43;;;;;;;2.47;1.20;;;26.20;99.90;;;;;;5117385;28;20016;-74
2022/08/20 10:45:10;;;;;;;3.15;0.90;;;26.30;99.90;;;;;;5112426;28;20027;-74
2022/08/20 10:47:36;;;;;;;3.75;1.23;;;26.40;99.90;;;;;;5106199;28;20031;-74
2022/08/20 10:50:07;;;;;;;1.85;1.10;;;26.50;99.90;;;;;;5118603;28;20085;-74
2022/08/20 10:52:33;;;;;;;2.38;1.15;;;26.70;99.90;;;;;;5118391;27;20016;-74
2022/08/20 10:54:59;;;;;;;3.50;1.23;;;27.00;99.90;;;;;;5118354;27;20084;-75
2022/08/20 10:57:27;;;;;;;1.55;0.80;;;27.10;99.90;;;;;;5119611;28;20012;-75
2022/08/20 10:59:55;;;;;;;4.22;1.35;;;27.20;99.90;;;;;;5117878;28;20049;-74
2022/08/20 11:02:22;;;;;;;1.98;0.80;;;27.10;99.90;;;;;;5105387;28;20024;-77
2022/08/20 11:04:49;;;;;;;1.60;1.13;;;26.70;99.90;;;;;;5111523;28;20062;-73
2022/08/20 11:07:28;;;;;;;1.92;0.98;;;26.40;99.90;;;;;;5120429;28;20015;-73
2022/08/20 11:09:55;;;;;;;1.48;0.80;;;26.20;99.90;;;;;;5119318;28;20028;-74
2022/08/20 11:12:21;;;;;;;6.07;1.05;;;26.20;99.90;;;;;;5118997;28;20035;-74
2022/08/20 11:14:49;;;;;;;2.13;1.10;;;26.50;99.90;;;;;;5116797;28;20031;-73
2022/08/20 11:17:23;;;;;;;3.97;1.52;;;26.80;99.90;;;;;;5110143;28;20020;-73
2022/08/20 11:19:50;;;;;;;1.33;0.95;;;27.00;99.90;;;;;;5120191;28;20020;-73
2022/08/20 11:22:16;;;;;;;1.15;0.70;;;27.00;99.90;;;;;;5119091;28;20055;-73
2022/08/20 11:24:42;;;;;;;1.85;0.82;;;27.10;99.90;;;;;;5106950;28;20035;-74
2022/08/20 11:27:09;;;;;;;1.55;0.80;;;27.20;99.90;;;;;;5120270;28;20044;-73
2022/08/20 11:29:37;;;;;;;1.80;0.98;;;27.30;99.90;;;;;;5115546;28;20028;-74
2022/08/20 11:32:05;;;;;;;1.85;0.98;;;27.30;99.90;;;;;;5120100;28;20019;-74
2022/08/20 11:34:31;;;;;;;1.38;0.90;;;27.30;99.90;;;;;;5118495;28;20084;-73
2022/08/20 11:36:57;;;;;;;1.20;0.85;;;27.40;99.90;;;;;;5119824;28;20024;-74
2022/08/20 11:39:24;;;;;;;1.98;0.80;;;27.50;99.90;;;;;;5118465;28;20059;-75
2022/08/20 11:41:50;;;;;;;3.03;0.90;;;27.40;99.90;;;;;;5119818;28;20068;-74
2022/08/20 11:44:16;;;;;;;2.45;1.23;;;27.20;99.90;;;;;;5119825;28;20031;-75
2022/08/20 11:46:41;;;;;;;1.42;0.82;;;27.20;99.90;;;;;;5113548;28;20016;-75
2022/08/20 11:49:07;;;;;;;2.38;0.80;;;27.20;99.90;;;;;;5114024;28;20023;-75
2022/08/20 11:51:33;;;;;;;1.67;0.80;;;27.30;99.90;;;;;;5117814;28;20430;-75
2022/08/20 11:53:59;;;;;;;1.67;0.73;;;27.20;99.90;;;;;;5108832;28;20032;-78
2022/08/20 11:56:25;;;;;;;4.20;1.05;;;27.40;99.90;;;;;;5098463;28;20077;-75
2022/08/20 11:58:51;;;;;;;1.17;0.77;;;27.40;99.90;;;;;;5114169;28;20097;-75
2022/08/20 12:01:16;;;;;;;1.20;0.88;;;27.40;99.90;;;;;;5115631;28;20028;-76
2022/08/20 12:03:42;;;;;;;1.73;0.68;;;27.50;99.90;;;;;;5113089;28;20023;-75
2022/08/20 12:06:08;;;;;;;2.33;0.80;;;27.50;99.90;;;;;;5117423;28;20079;-75
2022/08/20 12:08:34;;;;;;;1.35;0.70;;;27.60;99.90;;;;;;5105274;28;20084;-75
2022/08/20 12:11:01;;;;;;;1.35;0.60;;;27.80;99.90;;;;;;5115280;28;20008;-75
2022/08/20 12:13:30;;;;;;;0.82;0.55;;;28.00;99.90;;;;;;5104887;28;20511;-76
2022/08/20 12:15:56;;;;;;;1.02;0.70;;;28.00;99.90;;;;;;5117367;28;20055;-75
2022/08/20 12:18:22;;;;;;;4.63;0.80;;;28.20;99.90;;;;;;5115576;28;20034;-76
2022/08/20 12:20:48;;;;;;;0.85;0.57;;;28.20;99.90;;;;;;5117247;28;20106;-75
2022/08/20 12:23:14;;;;;;;2.53;0.70;;;28.10;99.90;;;;;;5102520;28;20107;-76
2022/08/20 12:25:40;;;;;;;1.80;0.95;;;27.80;99.90;;;;;;5107680;28;20034;-75
2022/08/20 12:28:06;;;;;;;1.02;0.73;;;27.90;99.90;;;;;;5117977;28;20016;-75
2022/08/20 12:30:32;;;;;;;0.90;0.73;;;28.00;99.90;;;;;;5109759;28;20555;-74
2022/08/20 12:32:59;;;;;;;2.20;1.00;;;28.10;99.90;;;;;;5096097;28;20056;-75
2022/08/20 12:35:25;;;;;;;2.67;0.63;;;28.10;99.90;;;;;;5113555;28;20025;-75
2022/08/20 12:37:51;;;;;;;1.10;0.70;;;28.10;99.60;;;;;;5117908;28;20448;-75
2022/08/20 12:40:24;;;;;;;2.40;0.75;;;28.10;99.90;;;;;;5117727;28;20027;-75
2022/08/20 12:42:50;;;;;;;1.27;0.70;;;28.30;99.70;;;;;;5117844;28;20031;-75
2022/08/20 12:45:17;;;;;;;1.00;0.70;;;28.40;98.20;;;;;;5113639;28;20012;-74
2022/08/20 12:47:46;;;;;;;0.82;0.63;;;28.50;97.70;;;;;;5117380;28;20479;-74
2022/08/20 12:50:23;;;;;;;2.10;0.60;;;28.70;98.70;;;;;;5112918;28;20020;-74
2022/08/20 12:52:50;;;;;;;0.85;0.68;;;28.70;96.30;;;;;;5102424;28;20047;-76
2022/08/20 12:55:18;;;;;;;1.30;0.55;;;28.60;95.40;;;;;;5107172;28;20073;-76
2022/08/20 12:57:48;;;;;;;1.92;0.60;;;28.50;96.10;;;;;;5110452;28;20119;-72